sensor_id;sensor_type;location;lat;lon;timestamp;temperature;humidity
1011;DHT22;494;48.744;10.106;2023-08-20T00:09:50;23.30;1.00
1011;DHT22;494;48.744;10.106;2023-08-20T00:12:30;23.30;1.00
1011;DHT22;494;48.744;10.106;2023-08-20T00:15:35;23.30;1.00
1011;DHT22;494;48.744;10.106;2023-08-20T00:18:40;23.30;1.00
1011;DHT22;494;48.744;10.106;2023-08-20T00:21:50;23.10;1.00
1011;DHT22;494;48.744;10.106;2023-08-20T00:32:58;23.10;1.00
1011;DHT22;494;48.744;10.106;2023-08-20T00:36:26;23.10;1.00
1011;DHT22;494;48.744;10.106;2023-08-20T00:39:05;23.10;1.00
1011;DHT22;494;48.744;10.106;2023-08-20T00:41:58;23.10;1.00
1011;DHT22;494;48.744;10.106;2023-08-20T00:44:50;23.10;1.00
1011;DHT22;494;48.744;10.106;2023-08-20T00:51:19;22.90;1.00
1011;DHT22;494;48.744;10.106;2023-08-20T00:54:29;22.90;1.00
1011;DHT22;494;48.744;10.106;2023-08-20T00:57:50;22.80;1.00
1011;DHT22;494;48.744;10.106;2023-08-20T01:01:05;22.80;1.00
1011;DHT22;494;48.744;10.106;2023-08-20T01:08:01;22.70;1.00
1011;DHT22;494;48.744;10.106;2023-08-20T01:11:37;22.70;1.00
1011;DHT22;494;48.744;10.106;2023-08-20T01:15:54;22.60;1.00
1011;DHT22;494;48.744;10.106;2023-08-20T01:19:19;22.60;1.00
1011;DHT22;494;48.744;10.106;2023-08-20T01:54:01;22.40;1.00
1011;DHT22;494;48.744;10.106;2023-08-20T01:58:04;22.30;1.00
1011;DHT22;494;48.744;10.106;2023-08-20T02:06:24;22.30;1.00
1011;DHT22;494;48.744;10.106;2023-08-20T02:13:25;22.20;1.00
1011;DHT22;494;48.744;10.106;2023-08-20T02:17:01;22.20;1.00
1011;DHT22;494;48.744;10.106;2023-08-20T02:21:21;22.10;1.00
1011;DHT22;494;48.744;10.106;2023-08-20T02:24:56;22.10;1.00
1011;DHT22;494;48.744;10.106;2023-08-20T02:40:57;22.00;1.00
1011;DHT22;494;48.744;10.106;2023-08-20T02:44:18;21.90;1.00
1011;DHT22;494;48.744;10.106;2023-08-20T02:48:12;22.00;1.00
1011;DHT22;494;48.744;10.106;2023-08-20T03:12:48;22.00;1.00
1011;DHT22;494;48.744;10.106;2023-08-20T03:15:49;22.00;1.00
1011;DHT22;494;48.744;10.106;2023-08-20T03:19:54;22.00;1.00
1011;DHT22;494;48.744;10.106;2023-08-20T03:22:57;22.00;1.00
1011;DHT22;494;48.744;10.106;2023-08-20T03:26:32;21.80;1.00
1011;DHT22;494;48.744;10.106;2023-08-20T03:30:05;21.80;1.00
1011;DHT22;494;48.744;10.106;2023-08-20T03:34:00;22.00;1.00
1011;DHT22;494;48.744;10.106;2023-08-20T03:39:46;22.00;1.00
1011;DHT22;494;48.744;10.106;2023-08-20T03:40:59;22.00;1.00
1011;DHT22;494;48.744;10.106;2023-08-20T03:44:06;22.00;1.00
1011;DHT22;494;48.744;10.106;2023-08-20T03:54:06;22.10;1.00
1011;DHT22;494;48.744;10.106;2023-08-20T04:01:08;22.10;1.00
1011;DHT22;494;48.744;10.106;2023-08-20T04:04:53;22.10;1.00
1011;DHT22;494;48.744;10.106;2023-08-20T04:07:47;22.10;1.00
1011;DHT22;494;48.744;10.106;2023-08-20T04:10:42;22.00;1.00
1011;DHT22;494;48.744;10.106;2023-08-20T04:27:41;22.00;1.00
1011;DHT22;494;48.744;10.106;2023-08-20T07:02:36;26.80;1.00
1011;DHT22;494;48.744;10.106;2023-08-20T07:05:07;27.00;1.00
1011;DHT22;494;48.744;10.106;2023-08-20T07:07:38;27.30;1.00
1011;DHT22;494;48.744;10.106;2023-08-20T07:10:16;27.60;1.00
1011;DHT22;494;48.744;10.106;2023-08-20T07:12:51;27.80;1.00
1011;DHT22;494;48.744;10.106;2023-08-20T07:15:31;28.00;1.00
1011;DHT22;494;48.744;10.106;2023-08-20T07:18:23;28.20;1.00
1011;DHT22;494;48.744;10.106;2023-08-20T07:21:08;28.40;1.00
1011;DHT22;494;48.744;10.106;2023-08-20T07:23:42;28.60;1.00
1011;DHT22;494;48.744;10.106;2023-08-20T07:26:41;28.70;1.00
1011;DHT22;494;48.744;10.106;2023-08-20T07:29:14;29.00;1.00
1011;DHT22;494;48.744;10.106;2023-08-20T07:31:45;29.20;1.00
1011;DHT22;494;48.744;10.106;2023-08-20T07:34:29;29.50;1.00
1011;DHT22;494;48.744;10.106;2023-08-20T07:37:07;29.60;1.00
1011;DHT22;494;48.744;10.106;2023-08-20T07:39:41;29.80;1.00
1011;DHT22;494;48.744;10.106;2023-08-20T07:42:21;29.90;1.00
1011;DHT22;494;48.744;10.106;2023-08-20T07:45:01;30.10;1.00
1011;DHT22;494;48.744;10.106;2023-08-20T07:47:44;30.20;1.00
1011;DHT22;494;48.744;10.106;2023-08-20T07:50:26;30.20;1.00
1011;DHT22;494;48.744;10.106;2023-08-20T07:53:14;30.30;1.00
1011;DHT22;494;48.744;10.106;2023-08-20T07:55:47;30.30;1.00
1011;DHT22;494;48.744;10.106;2023-08-20T07:58:19;30.50;1.00
1011;DHT22;494;48.744;10.106;2023-08-20T08:00:51;30.60;1.00
1011;DHT22;494;48.744;10.106;2023-08-20T08:03:24;30.80;1.00
1011;DHT22;494;48.744;10.106;2023-08-20T08:09:42;31.10;1.00
1011;DHT22;494;48.744;10.106;2023-08-20T08:12:23;31.30;1.00
1011;DHT22;494;48.744;10.106;2023-08-20T08:15:37;31.50;1.00
1011;DHT22;494;48.744;10.106;2023-08-20T08:35:24;32.70;1.00
1011;DHT22;494;48.744;10.106;2023-08-20T08:37:53;32.90;1.00
1011;DHT22;494;48.744;10.106;2023-08-20T08:40:22;32.90;1.00
1011;DHT22;494;48.744;10.106;2023-08-20T08:42:52;33.10;1.00
1011;DHT22;494;48.744;10.106;2023-08-20T08:45:22;33.20;1.00
1011;DHT22;494;48.744;10.106;2023-08-20T08:47:54;33.30;1.00
1011;DHT22;494;48.744;10.106;2023-08-20T08:50:24;33.40;1.00
1011;DHT22;494;48.744;10.106;2023-08-20T08:52:54;33.60;1.00
1011;DHT22;494;48.744;10.106;2023-08-20T08:55:23;33.70;1.00
1011;DHT22;494;48.744;10.106;2023-08-20T08:57:53;33.90;1.00
1011;DHT22;494;48.744;10.106;2023-08-20T09:00:22;34.00;1.00
1011;DHT22;494;48.744;10.106;2023-08-20T09:02:53;34.20;1.00
1011;DHT22;494;48.744;10.106;2023-08-20T09:05:24;34.30;1.00
1011;DHT22;494;48.744;10.106;2023-08-20T09:07:55;34.50;1.00
1011;DHT22;494;48.744;10.106;2023-08-20T09:10:26;34.70;1.00
1011;DHT22;494;48.744;10.106;2023-08-20T09:12:58;34.90;1.00
1011;DHT22;494;48.744;10.106;2023-08-20T09:15:33;35.00;1.00
1011;DHT22;494;48.744;10.106;2023-08-20T09:18:03;35.20;1.00
1011;DHT22;494;48.744;10.106;2023-08-20T09:20:37;35.30;1.00
1011;DHT22;494;48.744;10.106;2023-08-20T09:23:11;35.50;1.00
1011;DHT22;494;48.744;10.106;2023-08-20T09:25:41;35.70;1.00
1011;DHT22;494;48.744;10.106;2023-08-20T09:28:11;35.70;1.00
1011;DHT22;494;48.744;10.106;2023-08-20T09:30:39;35.80;1.00
1011;DHT22;494;48.744;10.106;2023-08-20T09:33:10;35.90;1.00
1011;DHT22;494;48.744;10.106;2023-08-20T09:35:50;36.10;1.00
1011;DHT22;494;48.744;10.106;2023-08-20T09:38:40;36.30;1.00
1011;DHT22;494;48.744;10.106;2023-08-20T09:41:29;36.50;1.00
1011;DHT22;494;48.744;10.106;2023-08-20T09:44:04;36.60;1.00
1011;DHT22;494;48.744;10.106;2023-08-20T09:46:37;36.90;1.00
1011;DHT22;494;48.744;10.106;2023-08-20T09:49:12;37.00;1.00
1011;DHT22;494;48.744;10.106;2023-08-20T10:21:10;38.40;1.00
1011;DHT22;494;48.744;10.106;2023-08-20T10:54:24;38.90;1.00
1011;DHT22;494;48.744;10.106;2023-08-20T10:56:57;39.00;1.00
1011;DHT22;494;48.744;10.106;2023-08-20T10:59:28;39.00;1.00
1011;DHT22;494;48.744;10.106;2023-08-20T11:01:58;39.10;1.00
1011;DHT22;494;48.744;10.106;2023-08-20T11:04:29;39.20;1.00
1011;DHT22;494;48.744;10.106;2023-08-20T12:26:02;42.10;1.00
1011;DHT22;494;48.744;10.106;2023-08-20T12:28:34;42.10;1.00
1011;DHT22;494;48.744;10.106;2023-08-20T12:31:03;42.20;1.00
1011;DHT22;494;48.744;10.106;2023-08-20T12:33:32;42.30;1.00
1011;DHT22;494;48.744;10.106;2023-08-20T12:36:01;42.60;1.00
1011;DHT22;494;48.744;10.106;2023-08-20T12:38:43;42.70;1.00
1011;DHT22;494;48.744;10.106;2023-08-20T12:41:14;42.90;1.00
1011;DHT22;494;48.744;10.106;2023-08-20T12:43:43;42.90;1.00
1011;DHT22;494;48.744;10.106;2023-08-20T12:46:12;43.00;1.00
1011;DHT22;494;48.744;10.106;2023-08-20T12:48:41;43.20;1.00
1011;DHT22;494;48.744;10.106;2023-08-20T12:51:10;43.20;1.00
1011;DHT22;494;48.744;10.106;2023-08-20T12:53:43;43.30;1.00
1011;DHT22;494;48.744;10.106;2023-08-20T13:34:43;42.40;1.00
1011;DHT22;494;48.744;10.106;2023-08-20T13:37:13;42.30;1.00
1011;DHT22;494;48.744;10.106;2023-08-20T13:44:06;42.50;1.00
1011;DHT22;494;48.744;10.106;2023-08-20T13:47:17;42.60;1.00
1011;DHT22;494;48.744;10.106;2023-08-20T13:49:51;42.40;1.00
1011;DHT22;494;48.744;10.106;2023-08-20T13:52:38;42.50;1.00
1011;DHT22;494;48.744;10.106;2023-08-20T13:56:04;42.60;1.00
1011;DHT22;494;48.744;10.106;2023-08-20T13:59:43;42.80;1.00
1011;DHT22;494;48.744;10.106;2023-08-20T14:05:41;42.70;1.00
1011;DHT22;494;48.744;10.106;2023-08-20T14:08:12;42.70;1.00
1011;DHT22;494;48.744;10.106;2023-08-20T14:10:50;42.80;1.00
1011;DHT22;494;48.744;10.106;2023-08-20T14:17:32;42.90;1.00
1011;DHT22;494;48.744;10.106;2023-08-20T14:20:06;43.00;1.00
1011;DHT22;494;48.744;10.106;2023-08-20T14:26:11;43.20;1.00
1011;DHT22;494;48.744;10.106;2023-08-20T14:28:43;43.30;1.00
1011;DHT22;494;48.744;10.106;2023-08-20T14:31:20;43.40;1.00
1011;DHT22;494;48.744;10.106;2023-08-20T14:33:50;43.60;1.00
1011;DHT22;494;48.744;10.106;2023-08-20T14:36:25;43.60;1.00
1011;DHT22;494;48.744;10.106;2023-08-20T14:39:04;43.70;1.00
1011;DHT22;494;48.744;10.106;2023-08-20T14:41:40;43.80;1.00
1011;DHT22;494;48.744;10.106;2023-08-20T14:44:14;43.70;1.00
1011;DHT22;494;48.744;10.106;2023-08-20T14:46:43;43.60;1.00
1011;DHT22;494;48.744;10.106;2023-08-20T14:49:13;43.50;1.00
1011;DHT22;494;48.744;10.106;2023-08-20T14:51:42;43.60;1.00
1011;DHT22;494;48.744;10.106;2023-08-20T14:54:13;43.70;1.00
1011;DHT22;494;48.744;10.106;2023-08-20T14:56:44;43.70;1.00
1011;DHT22;494;48.744;10.106;2023-08-20T14:59:15;43.70;1.00
1011;DHT22;494;48.744;10.106;2023-08-20T15:01:46;43.60;1.00
1011;DHT22;494;48.744;10.106;2023-08-20T15:04:19;43.60;1.00
1011;DHT22;494;48.744;10.106;2023-08-20T15:06:50;43.70;1.00
1011;DHT22;494;48.744;10.106;2023-08-20T15:09:19;43.80;1.00
1011;DHT22;494;48.744;10.106;2023-08-20T15:11:59;43.90;1.00
1011;DHT22;494;48.744;10.106;2023-08-20T15:35:35;43.00;1.00
1011;DHT22;494;48.744;10.106;2023-08-20T15:41:44;42.50;1.00
1011;DHT22;494;48.744;10.106;2023-08-20T16:45:10;38.70;1.00
1011;DHT22;494;48.744;10.106;2023-08-20T16:47:39;38.70;1.00
1011;DHT22;494;48.744;10.106;2023-08-20T16:50:09;38.40;1.00
1011;DHT22;494;48.744;10.106;2023-08-20T17:43:19;32.60;1.00
1011;DHT22;494;48.744;10.106;2023-08-20T17:45:49;32.30;1.00
1011;DHT22;494;48.744;10.106;2023-08-20T17:48:19;32.00;1.00
1011;DHT22;494;48.744;10.106;2023-08-20T17:50:48;31.80;1.00
1011;DHT22;494;48.744;10.106;2023-08-20T17:53:17;31.60;1.00
1011;DHT22;494;48.744;10.106;2023-08-20T17:55:45;31.40;1.00
1011;DHT22;494;48.744;10.106;2023-08-20T17:58:14;31.20;1.00
1011;DHT22;494;48.744;10.106;2023-08-20T18:00:55;31.00;1.00
1011;DHT22;494;48.744;10.106;2023-08-20T18:03:24;30.70;1.00
1011;DHT22;494;48.744;10.106;2023-08-20T18:05:53;30.50;1.00
1011;DHT22;494;48.744;10.106;2023-08-20T18:08:23;30.30;1.00
1011;DHT22;494;48.744;10.106;2023-08-20T18:10:52;30.10;1.00
1011;DHT22;494;48.744;10.106;2023-08-20T18:13:25;30.00;1.00
1011;DHT22;494;48.744;10.106;2023-08-20T18:15:55;29.90;1.00
1011;DHT22;494;48.744;10.106;2023-08-20T18:18:25;29.80;1.00
1011;DHT22;494;48.744;10.106;2023-08-20T18:20:55;29.70;1.00
1011;DHT22;494;48.744;10.106;2023-08-20T18:23:24;29.60;1.00
1011;DHT22;494;48.744;10.106;2023-08-20T18:25:53;29.50;1.00
1011;DHT22;494;48.744;10.106;2023-08-20T18:28:22;29.40;1.00
1011;DHT22;494;48.744;10.106;2023-08-20T18:30:51;29.30;1.00
1011;DHT22;494;48.744;10.106;2023-08-20T18:33:23;29.20;1.00
1011;DHT22;494;48.744;10.106;2023-08-20T18:36:00;29.20;1.00
1011;DHT22;494;48.744;10.106;2023-08-20T18:38:37;29.10;1.00
1011;DHT22;494;48.744;10.106;2023-08-20T18:41:09;29.00;1.00
1011;DHT22;494;48.744;10.106;2023-08-20T18:43:42;28.90;1.00
1011;DHT22;494;48.744;10.106;2023-08-20T18:46:13;28.80;1.00
1011;DHT22;494;48.744;10.106;2023-08-20T18:48:44;28.70;1.00
1011;DHT22;494;48.744;10.106;2023-08-20T18:51:12;28.60;1.00
1011;DHT22;494;48.744;10.106;2023-08-20T18:53:44;28.40;1.00
1011;DHT22;494;48.744;10.106;2023-08-20T18:56:13;28.40;1.00
1011;DHT22;494;48.744;10.106;2023-08-20T18:58:42;28.30;1.00
1011;DHT22;494;48.744;10.106;2023-08-20T19:01:11;28.20;1.00
1011;DHT22;494;48.744;10.106;2023-08-20T19:03:40;28.20;1.00
1011;DHT22;494;48.744;10.106;2023-08-20T19:06:10;28.10;1.00
1011;DHT22;494;48.744;10.106;2023-08-20T19:08:40;28.00;1.00
1011;DHT22;494;48.744;10.106;2023-08-20T19:11:09;28.00;1.00
1011;DHT22;494;48.744;10.106;2023-08-20T19:13:38;27.90;1.00
1011;DHT22;494;48.744;10.106;2023-08-20T19:16:07;27.90;1.00
1011;DHT22;494;48.744;10.106;2023-08-20T19:18:36;27.90;1.00
1011;DHT22;494;48.744;10.106;2023-08-20T19:21:05;28.00;1.00
1011;DHT22;494;48.744;10.106;2023-08-20T19:23:35;27.90;1.00
1011;DHT22;494;48.744;10.106;2023-08-20T19:26:04;27.80;1.00
1011;DHT22;494;48.744;10.106;2023-08-20T19:28:34;27.80;1.00
1011;DHT22;494;48.744;10.106;2023-08-20T19:31:05;27.80;1.00
1011;DHT22;494;48.744;10.106;2023-08-20T19:33:46;27.70;1.00
1011;DHT22;494;48.744;10.106;2023-08-20T19:36:15;27.60;1.00
1011;DHT22;494;48.744;10.106;2023-08-20T19:38:46;27.60;1.00
1011;DHT22;494;48.744;10.106;2023-08-20T19:41:15;27.50;1.00
1011;DHT22;494;48.744;10.106;2023-08-20T19:43:44;27.50;1.00
1011;DHT22;494;48.744;10.106;2023-08-20T19:46:13;27.50;1.00
1011;DHT22;494;48.744;10.106;2023-08-20T19:48:41;27.40;1.00
1011;DHT22;494;48.744;10.106;2023-08-20T19:51:11;27.50;1.00
1011;DHT22;494;48.744;10.106;2023-08-20T19:53:40;27.50;1.00
1011;DHT22;494;48.744;10.106;2023-08-20T19:56:13;27.60;1.00
1011;DHT22;494;48.744;10.106;2023-08-20T19:58:42;27.60;1.00
1011;DHT22;494;48.744;10.106;2023-08-20T20:01:11;27.60;1.00
1011;DHT22;494;48.744;10.106;2023-08-20T20:03:42;27.50;1.00
1011;DHT22;494;48.744;10.106;2023-08-20T20:06:11;27.50;1.00
1011;DHT22;494;48.744;10.106;2023-08-20T20:08:40;27.30;1.00
1011;DHT22;494;48.744;10.106;2023-08-20T20:11:09;27.20;1.00
1011;DHT22;494;48.744;10.106;2023-08-20T20:13:39;27.20;1.00
1011;DHT22;494;48.744;10.106;2023-08-20T20:16:08;27.20;1.00
1011;DHT22;494;48.744;10.106;2023-08-20T20:18:37;27.20;1.00
1011;DHT22;494;48.744;10.106;2023-08-20T20:21:06;27.20;1.00
1011;DHT22;494;48.744;10.106;2023-08-20T20:23:35;27.20;1.00
1011;DHT22;494;48.744;10.106;2023-08-20T20:26:04;27.20;1.00
1011;DHT22;494;48.744;10.106;2023-08-20T20:28:32;27.20;1.00
1011;DHT22;494;48.744;10.106;2023-08-20T20:31:04;27.20;1.00
1011;DHT22;494;48.744;10.106;2023-08-20T20:33:33;27.20;1.00
1011;DHT22;494;48.744;10.106;2023-08-20T20:36:02;27.10;1.00
1011;DHT22;494;48.744;10.106;2023-08-20T20:38:35;27.20;1.00
1011;DHT22;494;48.744;10.106;2023-08-20T20:41:06;27.20;1.00
1011;DHT22;494;48.744;10.106;2023-08-20T20:43:36;27.20;1.00
1011;DHT22;494;48.744;10.106;2023-08-20T20:46:06;27.10;1.00
1011;DHT22;494;48.744;10.106;2023-08-20T20:48:36;27.10;1.00
1011;DHT22;494;48.744;10.106;2023-08-20T20:51:04;27.10;1.00
1011;DHT22;494;48.744;10.106;2023-08-20T20:53:33;27.10;1.00
1011;DHT22;494;48.744;10.106;2023-08-20T20:56:03;27.00;1.00
1011;DHT22;494;48.744;10.106;2023-08-20T20:58:32;26.90;1.00
1011;DHT22;494;48.744;10.106;2023-08-20T21:01:00;26.90;1.00
1011;DHT22;494;48.744;10.106;2023-08-20T21:03:31;26.80;1.00
1011;DHT22;494;48.744;10.106;2023-08-20T21:06:03;26.90;1.00
1011;DHT22;494;48.744;10.106;2023-08-20T21:08:33;26.90;1.00
1011;DHT22;494;48.744;10.106;2023-08-20T21:11:02;26.80;1.00
1011;DHT22;494;48.744;10.106;2023-08-20T21:13:31;26.80;1.00
1011;DHT22;494;48.744;10.106;2023-08-20T21:15:59;26.80;1.00
1011;DHT22;494;48.744;10.106;2023-08-20T21:18:28;26.90;1.00
1011;DHT22;494;48.744;10.106;2023-08-20T21:20:59;26.90;1.00
1011;DHT22;494;48.744;10.106;2023-08-20T21:23:28;26.90;1.00
1011;DHT22;494;48.744;10.106;2023-08-20T21:25:57;26.90;1.00
1011;DHT22;494;48.744;10.106;2023-08-20T21:28:26;26.90;1.00
1011;DHT22;494;48.744;10.106;2023-08-20T21:30:55;26.80;1.00
1011;DHT22;494;48.744;10.106;2023-08-20T21:33:25;26.80;1.00
1011;DHT22;494;48.744;10.106;2023-08-20T21:35:54;26.80;1.00
1011;DHT22;494;48.744;10.106;2023-08-20T21:38:25;26.70;1.00
1011;DHT22;494;48.744;10.106;2023-08-20T21:40:53;26.60;1.00
1011;DHT22;494;48.744;10.106;2023-08-20T21:43:22;26.60;1.00
1011;DHT22;494;48.744;10.106;2023-08-20T21:45:51;26.50;1.00
1011;DHT22;494;48.744;10.106;2023-08-20T21:48:20;26.40;1.00
1011;DHT22;494;48.744;10.106;2023-08-20T21:50:49;26.30;1.00
1011;DHT22;494;48.744;10.106;2023-08-20T21:53:18;26.20;1.00
1011;DHT22;494;48.744;10.106;2023-08-20T21:55:54;26.10;1.00
1011;DHT22;494;48.744;10.106;2023-08-20T21:58:24;26.10;1.00
1011;DHT22;494;48.744;10.106;2023-08-20T22:00:52;26.00;1.00
1011;DHT22;494;48.744;10.106;2023-08-20T22:03:23;25.90;1.00
1011;DHT22;494;48.744;10.106;2023-08-20T22:05:53;25.90;1.00
1011;DHT22;494;48.744;10.106;2023-08-20T22:08:22;25.90;1.00
1011;DHT22;494;48.744;10.106;2023-08-20T22:10:55;25.80;1.00
1011;DHT22;494;48.744;10.106;2023-08-20T22:13:32;25.80;1.00
1011;DHT22;494;48.744;10.106;2023-08-20T22:16:03;25.80;1.00
1011;DHT22;494;48.744;10.106;2023-08-20T22:18:32;25.80;1.00
1011;DHT22;494;48.744;10.106;2023-08-20T22:21:01;25.70;1.00
1011;DHT22;494;48.744;10.106;2023-08-20T22:23:30;25.70;1.00
1011;DHT22;494;48.744;10.106;2023-08-20T22:26:01;25.60;1.00
1011;DHT22;494;48.744;10.106;2023-08-20T22:28:33;25.60;1.00
1011;DHT22;494;48.744;10.106;2023-08-20T22:31:02;25.50;1.00
1011;DHT22;494;48.744;10.106;2023-08-20T22:33:31;25.40;1.00
1011;DHT22;494;48.744;10.106;2023-08-20T22:36:00;25.30;1.00
1011;DHT22;494;48.744;10.106;2023-08-20T22:38:29;25.20;1.00
1011;DHT22;494;48.744;10.106;2023-08-20T22:40:57;25.20;1.00
1011;DHT22;494;48.744;10.106;2023-08-20T22:43:29;25.20;1.00
1011;DHT22;494;48.744;10.106;2023-08-20T22:45:57;25.20;1.00
1011;DHT22;494;48.744;10.106;2023-08-20T22:48:27;25.20;1.00
1011;DHT22;494;48.744;10.106;2023-08-20T22:50:57;25.20;1.00
1011;DHT22;494;48.744;10.106;2023-08-20T22:53:26;25.10;1.00
1011;DHT22;494;48.744;10.106;2023-08-20T22:55:57;25.10;1.00
1011;DHT22;494;48.744;10.106;2023-08-20T22:58:25;25.10;1.00
1011;DHT22;494;48.744;10.106;2023-08-20T23:00:56;25.10;1.00
1011;DHT22;494;48.744;10.106;2023-08-20T23:03:25;25.10;1.00
1011;DHT22;494;48.744;10.106;2023-08-20T23:05:55;25.10;1.00
1011;DHT22;494;48.744;10.106;2023-08-20T23:08:24;25.10;1.00
1011;DHT22;494;48.744;10.106;2023-08-20T23:10:53;25.10;1.00
1011;DHT22;494;48.744;10.106;2023-08-20T23:13:22;25.00;1.00
1011;DHT22;494;48.744;10.106;2023-08-20T23:15:53;25.00;1.00
1011;DHT22;494;48.744;10.106;2023-08-20T23:18:23;24.90;1.00
1011;DHT22;494;48.744;10.106;2023-08-20T23:20:54;24.90;1.00
1011;DHT22;494;48.744;10.106;2023-08-20T23:23:28;24.80;1.00
1011;DHT22;494;48.744;10.106;2023-08-20T23:25:56;24.70;1.00
1011;DHT22;494;48.744;10.106;2023-08-20T23:28:25;24.70;1.00
1011;DHT22;494;48.744;10.106;2023-08-20T23:30:54;24.70;1.00
1011;DHT22;494;48.744;10.106;2023-08-20T23:33:25;24.70;1.00
1011;DHT22;494;48.744;10.106;2023-08-20T23:35:53;24.60;1.00
1011;DHT22;494;48.744;10.106;2023-08-20T23:38:22;24.50;1.00
1011;DHT22;494;48.744;10.106;2023-08-20T23:40:53;24.50;1.00
1011;DHT22;494;48.744;10.106;2023-08-20T23:43:23;24.40;1.00
1011;DHT22;494;48.744;10.106;2023-08-20T23:45:53;24.40;1.00
1011;DHT22;494;48.744;10.106;2023-08-20T23:48:23;24.40;1.00
1011;DHT22;494;48.744;10.106;2023-08-20T23:50:53;24.40;1.00
1011;DHT22;494;48.744;10.106;2023-08-20T23:53:22;24.30;1.00
1011;DHT22;494;48.744;10.106;2023-08-20T23:55:51;24.30;1.00
1011;DHT22;494;48.744;10.106;2023-08-20T23:58:20;24.30;1.00
